sensor_id;sensor_type;location;lat;lon;timestamp;P1;durP1;ratioP1;P2;durP2;ratioP2
830;SDS011;397;50.564;7.272;2022-08-19T00:00:36;22.63;;;20.90;;
830;SDS011;397;50.564;7.272;2022-08-19T00:03:05;22.37;;;20.60;;
830;SDS011;397;50.564;7.272;2022-08-19T00:05:33;22.80;;;21.00;;
830;SDS011;397;50.564;7.272;2022-08-19T00:08:01;21.10;;;19.47;;
830;SDS011;397;50.564;7.272;2022-08-19T00:10:29;21.03;;;19.43;;
830;SDS011;397;50.564;7.272;2022-08-19T00:12:57;20.73;;;19.23;;
830;SDS011;397;50.564;7.272;2022-08-19T00:15:25;20.77;;;19.27;;
830;SDS011;397;50.564;7.272;2022-08-19T00:17:53;22.33;;;20.70;;
830;SDS011;397;50.564;7.272;2022-08-19T00:20:21;20.30;;;18.77;;
830;SDS011;397;50.564;7.272;2022-08-19T00:22:49;22.47;;;20.57;;
830;SDS011;397;50.564;7.272;2022-08-19T00:25:17;20.70;;;19.00;;
830;SDS011;397;50.564;7.272;2022-08-19T00:27:45;21.33;;;19.57;;
830;SDS011;397;50.564;7.272;2022-08-19T00:30:13;21.60;;;20.00;;
830;SDS011;397;50.564;7.272;2022-08-19T00:32:41;21.50;;;19.80;;
830;SDS011;397;50.564;7.272;2022-08-19T00:35:08;22.20;;;20.43;;
830;SDS011;397;50.564;7.272;2022-08-19T00:37:36;22.70;;;20.87;;
830;SDS011;397;50.564;7.272;2022-08-19T00:40:06;22.17;;;20.37;;
830;SDS011;397;50.564;7.272;2022-08-19T00:42:34;21.90;;;20.20;;
830;SDS011;397;50.564;7.272;2022-08-19T00:45:04;22.40;;;20.47;;
830;SDS011;397;50.564;7.272;2022-08-19T00:47:33;23.13;;;20.83;;
830;SDS011;397;50.564;7.272;2022-08-19T00:50:01;22.57;;;20.80;;
830;SDS011;397;50.564;7.272;2022-08-19T00:52:30;21.23;;;19.40;;
830;SDS011;397;50.564;7.272;2022-08-19T00:55:00;23.87;;;21.67;;
830;SDS011;397;50.564;7.272;2022-08-19T00:57:33;22.47;;;20.67;;
830;SDS011;397;50.564;7.272;2022-08-19T01:00:03;20.70;;;19.10;;
830;SDS011;397;50.564;7.272;2022-08-19T01:02:33;20.30;;;18.80;;
830;SDS011;397;50.564;7.272;2022-08-19T01:05:01;19.50;;;18.00;;
830;SDS011;397;50.564;7.272;2022-08-19T01:07:30;16.00;;;14.80;;
830;SDS011;397;50.564;7.272;2022-08-19T01:09:59;17.00;;;15.40;;
830;SDS011;397;50.564;7.272;2022-08-19T01:12:27;17.07;;;15.60;;
830;SDS011;397;50.564;7.272;2022-08-19T01:14:55;17.60;;;16.03;;
830;SDS011;397;50.564;7.272;2022-08-19T01:17:24;15.63;;;14.20;;
830;SDS011;397;50.564;7.272;2022-08-19T01:19:52;16.03;;;14.63;;
830;SDS011;397;50.564;7.272;2022-08-19T01:25:00;14.57;;;13.37;;
830;SDS011;397;50.564;7.272;2022-08-19T01:27:36;16.33;;;14.93;;
830;SDS011;397;50.564;7.272;2022-08-19T01:30:04;17.50;;;16.00;;
830;SDS011;397;50.564;7.272;2022-08-19T01:32:34;16.50;;;15.00;;
830;SDS011;397;50.564;7.272;2022-08-19T01:35:03;17.10;;;15.70;;
830;SDS011;397;50.564;7.272;2022-08-19T01:37:41;16.90;;;15.20;;
830;SDS011;397;50.564;7.272;2022-08-19T01:40:21;17.93;;;16.47;;
830;SDS011;397;50.564;7.272;2022-08-19T01:42:52;16.27;;;14.97;;
830;SDS011;397;50.564;7.272;2022-08-19T01:45:21;16.13;;;14.93;;
830;SDS011;397;50.564;7.272;2022-08-19T01:47:51;19.00;;;17.50;;
830;SDS011;397;50.564;7.272;2022-08-19T01:50:19;21.53;;;19.60;;
830;SDS011;397;50.564;7.272;2022-08-19T01:52:46;17.17;;;15.90;;
830;SDS011;397;50.564;7.272;2022-08-19T01:55:15;18.77;;;17.23;;
830;SDS011;397;50.564;7.272;2022-08-19T01:57:50;18.07;;;16.77;;
830;SDS011;397;50.564;7.272;2022-08-19T02:00:16;17.40;;;15.80;;
830;SDS011;397;50.564;7.272;2022-08-19T02:02:46;17.67;;;16.27;;
830;SDS011;397;50.564;7.272;2022-08-19T02:05:13;18.60;;;16.87;;
830;SDS011;397;50.564;7.272;2022-08-19T02:07:43;18.93;;;17.33;;
830;SDS011;397;50.564;7.272;2022-08-19T02:10:12;15.23;;;14.00;;
830;SDS011;397;50.564;7.272;2022-08-19T02:12:41;18.03;;;16.50;;
830;SDS011;397;50.564;7.272;2022-08-19T02:15:09;17.30;;;15.77;;
830;SDS011;397;50.564;7.272;2022-08-19T02:17:38;15.33;;;13.90;;
830;SDS011;397;50.564;7.272;2022-08-19T02:20:07;13.77;;;12.67;;
830;SDS011;397;50.564;7.272;2022-08-19T02:22:35;13.33;;;12.27;;
830;SDS011;397;50.564;7.272;2022-08-19T02:25:03;13.87;;;12.77;;
830;SDS011;397;50.564;7.272;2022-08-19T02:27:31;14.40;;;13.20;;
830;SDS011;397;50.564;7.272;2022-08-19T02:29:59;13.60;;;12.57;;
830;SDS011;397;50.564;7.272;2022-08-19T02:32:27;13.77;;;12.57;;
830;SDS011;397;50.564;7.272;2022-08-19T02:34:56;14.30;;;13.20;;
830;SDS011;397;50.564;7.272;2022-08-19T02:37:23;14.43;;;13.23;;
830;SDS011;397;50.564;7.272;2022-08-19T02:40:10;13.97;;;12.80;;
830;SDS011;397;50.564;7.272;2022-08-19T02:42:38;14.20;;;13.10;;
830;SDS011;397;50.564;7.272;2022-08-19T02:45:06;13.40;;;12.20;;
830;SDS011;397;50.564;7.272;2022-08-19T02:47:35;14.70;;;13.40;;
830;SDS011;397;50.564;7.272;2022-08-19T02:50:03;17.00;;;13.90;;
830;SDS011;397;50.564;7.272;2022-08-19T02:52:32;14.93;;;13.83;;
830;SDS011;397;50.564;7.272;2022-08-19T02:55:01;15.30;;;14.00;;
830;SDS011;397;50.564;7.272;2022-08-19T02:57:29;16.00;;;14.80;;
830;SDS011;397;50.564;7.272;2022-08-19T02:59:58;16.57;;;15.17;;
830;SDS011;397;50.564;7.272;2022-08-19T03:02:25;15.50;;;14.10;;
830;SDS011;397;50.564;7.272;2022-08-19T03:04:53;17.80;;;16.30;;
830;SDS011;397;50.564;7.272;2022-08-19T03:07:20;16.90;;;15.60;;
830;SDS011;397;50.564;7.272;2022-08-19T03:09:48;17.13;;;15.73;;
830;SDS011;397;50.564;7.272;2022-08-19T03:12:15;16.50;;;15.20;;
830;SDS011;397;50.564;7.272;2022-08-19T03:14:43;15.63;;;14.33;;
830;SDS011;397;50.564;7.272;2022-08-19T03:17:12;16.27;;;14.97;;
830;SDS011;397;50.564;7.272;2022-08-19T03:19:40;15.67;;;14.37;;
830;SDS011;397;50.564;7.272;2022-08-19T03:22:08;16.47;;;15.07;;
830;SDS011;397;50.564;7.272;2022-08-19T03:24:36;17.00;;;15.50;;
830;SDS011;397;50.564;7.272;2022-08-19T03:27:04;17.40;;;15.80;;
830;SDS011;397;50.564;7.272;2022-08-19T03:29:32;16.00;;;14.80;;
830;SDS011;397;50.564;7.272;2022-08-19T03:32:03;15.07;;;13.97;;
830;SDS011;397;50.564;7.272;2022-08-19T03:34:32;16.77;;;15.37;;
830;SDS011;397;50.564;7.272;2022-08-19T03:37:06;16.60;;;15.20;;
830;SDS011;397;50.564;7.272;2022-08-19T03:39:36;14.70;;;13.57;;
830;SDS011;397;50.564;7.272;2022-08-19T03:42:06;19.23;;;17.73;;
830;SDS011;397;50.564;7.272;2022-08-19T03:44:33;17.37;;;15.90;;
830;SDS011;397;50.564;7.272;2022-08-19T03:47:03;16.10;;;14.60;;
830;SDS011;397;50.564;7.272;2022-08-19T03:49:32;18.57;;;16.97;;
830;SDS011;397;50.564;7.272;2022-08-19T03:52:01;18.37;;;16.77;;
830;SDS011;397;50.564;7.272;2022-08-19T03:54:30;16.57;;;15.27;;
830;SDS011;397;50.564;7.272;2022-08-19T03:56:58;16.00;;;14.80;;
830;SDS011;397;50.564;7.272;2022-08-19T04:02:12;16.07;;;14.83;;
830;SDS011;397;50.564;7.272;2022-08-19T04:04:41;17.60;;;16.20;;
830;SDS011;397;50.564;7.272;2022-08-19T04:07:10;14.97;;;13.87;;
830;SDS011;397;50.564;7.272;2022-08-19T04:09:41;16.20;;;14.80;;
830;SDS011;397;50.564;7.272;2022-08-19T04:12:09;16.73;;;15.43;;
830;SDS011;397;50.564;7.272;2022-08-19T04:14:36;15.97;;;14.63;;
830;SDS011;397;50.564;7.272;2022-08-19T04:17:05;17.13;;;15.83;;
830;SDS011;397;50.564;7.272;2022-08-19T04:19:33;15.00;;;13.70;;
830;SDS011;397;50.564;7.272;2022-08-19T04:22:02;15.27;;;14.03;;
830;SDS011;397;50.564;7.272;2022-08-19T04:24:30;16.47;;;15.10;;
830;SDS011;397;50.564;7.272;2022-08-19T04:26:59;18.03;;;16.43;;
830;SDS011;397;50.564;7.272;2022-08-19T04:29:27;16.70;;;15.40;;
830;SDS011;397;50.564;7.272;2022-08-19T04:31:56;17.50;;;15.80;;
830;SDS011;397;50.564;7.272;2022-08-19T04:34:26;16.17;;;14.87;;
830;SDS011;397;50.564;7.272;2022-08-19T04:36:55;16.83;;;15.33;;
830;SDS011;397;50.564;7.272;2022-08-19T04:39:26;17.23;;;15.90;;
830;SDS011;397;50.564;7.272;2022-08-19T04:42:14;17.67;;;16.27;;
830;SDS011;397;50.564;7.272;2022-08-19T04:45:01;16.17;;;14.90;;
830;SDS011;397;50.564;7.272;2022-08-19T04:47:29;16.63;;;15.30;;
830;SDS011;397;50.564;7.272;2022-08-19T04:49:58;16.30;;;15.10;;
830;SDS011;397;50.564;7.272;2022-08-19T04:52:25;15.00;;;13.77;;
830;SDS011;397;50.564;7.272;2022-08-19T04:54:53;15.90;;;14.63;;
830;SDS011;397;50.564;7.272;2022-08-19T04:57:21;15.93;;;14.53;;
830;SDS011;397;50.564;7.272;2022-08-19T04:59:48;16.10;;;14.80;;
830;SDS011;397;50.564;7.272;2022-08-19T05:02:17;16.07;;;14.87;;
830;SDS011;397;50.564;7.272;2022-08-19T05:04:45;16.93;;;15.63;;
830;SDS011;397;50.564;7.272;2022-08-19T05:07:14;16.43;;;15.07;;
830;SDS011;397;50.564;7.272;2022-08-19T05:09:42;16.93;;;15.30;;
830;SDS011;397;50.564;7.272;2022-08-19T05:12:09;14.90;;;13.80;;
830;SDS011;397;50.564;7.272;2022-08-19T05:14:36;17.57;;;15.90;;
830;SDS011;397;50.564;7.272;2022-08-19T05:17:04;17.50;;;16.20;;
830;SDS011;397;50.564;7.272;2022-08-19T05:19:32;16.67;;;15.27;;
830;SDS011;397;50.564;7.272;2022-08-19T05:22:17;17.17;;;15.70;;
830;SDS011;397;50.564;7.272;2022-08-19T05:25:10;16.17;;;14.77;;
830;SDS011;397;50.564;7.272;2022-08-19T05:27:40;16.97;;;15.67;;
830;SDS011;397;50.564;7.272;2022-08-19T05:30:08;16.80;;;15.50;;
830;SDS011;397;50.564;7.272;2022-08-19T05:32:38;16.57;;;15.27;;
830;SDS011;397;50.564;7.272;2022-08-19T05:35:06;15.80;;;14.60;;
830;SDS011;397;50.564;7.272;2022-08-19T05:37:35;15.43;;;14.10;;
830;SDS011;397;50.564;7.272;2022-08-19T05:40:02;16.03;;;14.63;;
830;SDS011;397;50.564;7.272;2022-08-19T05:42:30;16.07;;;14.77;;
830;SDS011;397;50.564;7.272;2022-08-19T05:44:58;15.13;;;13.93;;
830;SDS011;397;50.564;7.272;2022-08-19T05:47:26;16.97;;;15.53;;
830;SDS011;397;50.564;7.272;2022-08-19T05:49:53;16.73;;;15.33;;
830;SDS011;397;50.564;7.272;2022-08-19T05:55:08;16.83;;;15.33;;
830;SDS011;397;50.564;7.272;2022-08-19T05:57:36;14.80;;;13.47;;
830;SDS011;397;50.564;7.272;2022-08-19T06:00:04;16.20;;;14.70;;
830;SDS011;397;50.564;7.272;2022-08-19T06:02:36;15.30;;;14.10;;
830;SDS011;397;50.564;7.272;2022-08-19T06:05:04;14.63;;;13.57;;
830;SDS011;397;50.564;7.272;2022-08-19T06:07:43;16.60;;;15.07;;
830;SDS011;397;50.564;7.272;2022-08-19T06:10:11;16.30;;;15.00;;
830;SDS011;397;50.564;7.272;2022-08-19T06:12:39;17.40;;;15.87;;
830;SDS011;397;50.564;7.272;2022-08-19T06:15:09;16.67;;;15.00;;
830;SDS011;397;50.564;7.272;2022-08-19T06:17:37;16.70;;;15.40;;
830;SDS011;397;50.564;7.272;2022-08-19T06:20:07;18.30;;;16.60;;
830;SDS011;397;50.564;7.272;2022-08-19T06:22:55;18.23;;;16.77;;
830;SDS011;397;50.564;7.272;2022-08-19T06:25:22;16.57;;;15.07;;
830;SDS011;397;50.564;7.272;2022-08-19T06:27:50;15.60;;;14.40;;
830;SDS011;397;50.564;7.272;2022-08-19T06:30:18;16.67;;;14.97;;
830;SDS011;397;50.564;7.272;2022-08-19T06:32:46;19.27;;;17.40;;
830;SDS011;397;50.564;7.272;2022-08-19T06:35:13;21.03;;;16.23;;
830;SDS011;397;50.564;7.272;2022-08-19T06:37:41;17.13;;;15.60;;
830;SDS011;397;50.564;7.272;2022-08-19T06:40:10;20.90;;;18.73;;
830;SDS011;397;50.564;7.272;2022-08-19T06:42:38;20.30;;;18.70;;
830;SDS011;397;50.564;7.272;2022-08-19T06:45:06;21.00;;;19.30;;
830;SDS011;397;50.564;7.272;2022-08-19T06:47:54;19.03;;;17.53;;
830;SDS011;397;50.564;7.272;2022-08-19T06:50:27;20.90;;;19.23;;
830;SDS011;397;50.564;7.272;2022-08-19T06:52:51;24.00;;;22.20;;
830;SDS011;397;50.564;7.272;2022-08-19T06:55:19;24.27;;;22.17;;
830;SDS011;397;50.564;7.272;2022-08-19T06:57:47;26.90;;;24.40;;
830;SDS011;397;50.564;7.272;2022-08-19T07:00:16;25.40;;;23.40;;
830;SDS011;397;50.564;7.272;2022-08-19T07:02:44;26.57;;;24.37;;
830;SDS011;397;50.564;7.272;2022-08-19T07:05:11;30.50;;;27.80;;
830;SDS011;397;50.564;7.272;2022-08-19T07:07:39;33.83;;;30.80;;
830;SDS011;397;50.564;7.272;2022-08-19T07:10:08;35.20;;;32.00;;
830;SDS011;397;50.564;7.272;2022-08-19T07:12:36;29.43;;;26.80;;
830;SDS011;397;50.564;7.272;2022-08-19T07:15:04;31.77;;;28.87;;
830;SDS011;397;50.564;7.272;2022-08-19T07:17:34;34.60;;;31.47;;
830;SDS011;397;50.564;7.272;2022-08-19T07:20:03;37.03;;;33.70;;
830;SDS011;397;50.564;7.272;2022-08-19T07:22:34;34.23;;;31.23;;
830;SDS011;397;50.564;7.272;2022-08-19T07:25:01;32.37;;;29.20;;
830;SDS011;397;50.564;7.272;2022-08-19T07:27:30;33.40;;;30.50;;
830;SDS011;397;50.564;7.272;2022-08-19T07:29:57;35.83;;;32.40;;
830;SDS011;397;50.564;7.272;2022-08-19T07:32:25;30.90;;;28.00;;
830;SDS011;397;50.564;7.272;2022-08-19T07:34:53;31.27;;;28.47;;
830;SDS011;397;50.564;7.272;2022-08-19T07:37:21;29.90;;;27.17;;
830;SDS011;397;50.564;7.272;2022-08-19T07:39:52;31.90;;;29.10;;
830;SDS011;397;50.564;7.272;2022-08-19T07:42:20;31.57;;;28.73;;
830;SDS011;397;50.564;7.272;2022-08-19T07:44:47;31.20;;;28.10;;
830;SDS011;397;50.564;7.272;2022-08-19T07:47:15;28.07;;;25.73;;
830;SDS011;397;50.564;7.272;2022-08-19T07:49:42;30.97;;;28.37;;
830;SDS011;397;50.564;7.272;2022-08-19T07:52:10;28.87;;;26.10;;
830;SDS011;397;50.564;7.272;2022-08-19T07:54:38;29.30;;;26.60;;
830;SDS011;397;50.564;7.272;2022-08-19T07:57:07;30.37;;;27.57;;
830;SDS011;397;50.564;7.272;2022-08-19T07:59:35;28.13;;;25.67;;
830;SDS011;397;50.564;7.272;2022-08-19T08:02:03;26.07;;;23.87;;
830;SDS011;397;50.564;7.272;2022-08-19T08:04:30;23.73;;;21.70;;
830;SDS011;397;50.564;7.272;2022-08-19T08:07:16;23.57;;;21.37;;
830;SDS011;397;50.564;7.272;2022-08-19T08:10:04;23.97;;;21.67;;
830;SDS011;397;50.564;7.272;2022-08-19T08:12:35;23.27;;;20.87;;
830;SDS011;397;50.564;7.272;2022-08-19T08:15:06;20.73;;;18.67;;
830;SDS011;397;50.564;7.272;2022-08-19T08:17:36;18.50;;;17.00;;
830;SDS011;397;50.564;7.272;2022-08-19T08:20:04;15.87;;;14.47;;
830;SDS011;397;50.564;7.272;2022-08-19T08:22:33;16.33;;;14.73;;
830;SDS011;397;50.564;7.272;2022-08-19T08:25:20;20.60;;;18.47;;
830;SDS011;397;50.564;7.272;2022-08-19T08:27:49;18.03;;;15.93;;
830;SDS011;397;50.564;7.272;2022-08-19T08:30:24;16.60;;;15.00;;
830;SDS011;397;50.564;7.272;2022-08-19T08:32:48;16.37;;;14.97;;
830;SDS011;397;50.564;7.272;2022-08-19T08:35:18;14.90;;;13.70;;
830;SDS011;397;50.564;7.272;2022-08-19T08:37:51;17.40;;;16.00;;
830;SDS011;397;50.564;7.272;2022-08-19T08:43:10;18.07;;;16.50;;
830;SDS011;397;50.564;7.272;2022-08-19T08:45:44;19.93;;;18.20;;
830;SDS011;397;50.564;7.272;2022-08-19T08:48:18;19.73;;;18.07;;
830;SDS011;397;50.564;7.272;2022-08-19T08:50:46;18.13;;;16.60;;
830;SDS011;397;50.564;7.272;2022-08-19T08:53:18;17.03;;;15.43;;
830;SDS011;397;50.564;7.272;2022-08-19T08:55:46;14.80;;;13.50;;
830;SDS011;397;50.564;7.272;2022-08-19T08:58:17;15.80;;;14.50;;
830;SDS011;397;50.564;7.272;2022-08-19T09:00:54;16.53;;;15.10;;
830;SDS011;397;50.564;7.272;2022-08-19T09:03:25;17.70;;;16.20;;
830;SDS011;397;50.564;7.272;2022-08-19T09:05:59;14.43;;;13.23;;
830;SDS011;397;50.564;7.272;2022-08-19T09:08:33;15.03;;;13.53;;
830;SDS011;397;50.564;7.272;2022-08-19T09:10:57;14.90;;;13.60;;
830;SDS011;397;50.564;7.272;2022-08-19T09:16:05;18.60;;;16.70;;
830;SDS011;397;50.564;7.272;2022-08-19T09:18:43;16.93;;;15.23;;
830;SDS011;397;50.564;7.272;2022-08-19T09:21:13;15.10;;;13.80;;
830;SDS011;397;50.564;7.272;2022-08-19T09:23:41;16.43;;;14.83;;
830;SDS011;397;50.564;7.272;2022-08-19T09:26:13;15.10;;;13.60;;
830;SDS011;397;50.564;7.272;2022-08-19T09:28:44;17.03;;;15.60;;
830;SDS011;397;50.564;7.272;2022-08-19T09:31:13;16.73;;;14.70;;
830;SDS011;397;50.564;7.272;2022-08-19T09:33:43;18.07;;;16.37;;
830;SDS011;397;50.564;7.272;2022-08-19T09:36:16;20.13;;;18.43;;
830;SDS011;397;50.564;7.272;2022-08-19T09:38:41;16.40;;;15.10;;
830;SDS011;397;50.564;7.272;2022-08-19T09:41:14;17.47;;;16.03;;
830;SDS011;397;50.564;7.272;2022-08-19T09:43:44;17.07;;;15.70;;
830;SDS011;397;50.564;7.272;2022-08-19T09:46:13;17.03;;;15.63;;
830;SDS011;397;50.564;7.272;2022-08-19T09:48:43;16.27;;;14.97;;
830;SDS011;397;50.564;7.272;2022-08-19T09:51:13;21.17;;;19.33;;
830;SDS011;397;50.564;7.272;2022-08-19T09:53:43;20.47;;;18.70;;
830;SDS011;397;50.564;7.272;2022-08-19T09:56:12;22.83;;;20.60;;
830;SDS011;397;50.564;7.272;2022-08-19T09:58:40;16.93;;;15.47;;
830;SDS011;397;50.564;7.272;2022-08-19T10:01:08;17.63;;;16.07;;
830;SDS011;397;50.564;7.272;2022-08-19T10:03:36;15.70;;;14.43;;
830;SDS011;397;50.564;7.272;2022-08-19T10:06:04;19.33;;;17.67;;
830;SDS011;397;50.564;7.272;2022-08-19T10:08:33;19.77;;;17.73;;
830;SDS011;397;50.564;7.272;2022-08-19T10:11:03;19.97;;;18.37;;
830;SDS011;397;50.564;7.272;2022-08-19T10:13:31;16.90;;;15.30;;
830;SDS011;397;50.564;7.272;2022-08-19T10:16:05;15.13;;;13.83;;
830;SDS011;397;50.564;7.272;2022-08-19T10:18:35;17.00;;;15.50;;
830;SDS011;397;50.564;7.272;2022-08-19T10:21:07;17.80;;;16.23;;
830;SDS011;397;50.564;7.272;2022-08-19T10:23:37;18.80;;;17.00;;
830;SDS011;397;50.564;7.272;2022-08-19T10:26:06;14.90;;;13.63;;
830;SDS011;397;50.564;7.272;2022-08-19T10:28:34;21.23;;;19.13;;
830;SDS011;397;50.564;7.272;2022-08-19T10:31:10;15.80;;;14.50;;
830;SDS011;397;50.564;7.272;2022-08-19T10:33:36;22.73;;;20.73;;
830;SDS011;397;50.564;7.272;2022-08-19T10:36:10;14.90;;;13.67;;
830;SDS011;397;50.564;7.272;2022-08-19T10:38:35;19.53;;;17.80;;
830;SDS011;397;50.564;7.272;2022-08-19T10:41:14;18.27;;;16.57;;
830;SDS011;397;50.564;7.272;2022-08-19T10:43:40;21.70;;;19.90;;
830;SDS011;397;50.564;7.272;2022-08-19T10:46:09;20.53;;;18.90;;
830;SDS011;397;50.564;7.272;2022-08-19T10:48:39;24.23;;;22.23;;
830;SDS011;397;50.564;7.272;2022-08-19T10:51:07;20.10;;;18.10;;
830;SDS011;397;50.564;7.272;2022-08-19T10:53:54;24.83;;;22.43;;
830;SDS011;397;50.564;7.272;2022-08-19T10:56:22;23.70;;;21.30;;
830;SDS011;397;50.564;7.272;2022-08-19T10:59:08;21.93;;;19.63;;
830;SDS011;397;50.564;7.272;2022-08-19T11:01:39;15.20;;;13.97;;
830;SDS011;397;50.564;7.272;2022-08-19T11:04:07;25.13;;;23.13;;
830;SDS011;397;50.564;7.272;2022-08-19T11:06:37;19.20;;;17.60;;
830;SDS011;397;50.564;7.272;2022-08-19T11:09:07;19.90;;;18.07;;
830;SDS011;397;50.564;7.272;2022-08-19T11:11:34;21.10;;;18.60;;
830;SDS011;397;50.564;7.272;2022-08-19T11:14:05;21.07;;;19.37;;
830;SDS011;397;50.564;7.272;2022-08-19T11:16:33;20.03;;;18.43;;
830;SDS011;397;50.564;7.272;2022-08-19T11:19:01;21.53;;;19.73;;
830;SDS011;397;50.564;7.272;2022-08-19T11:21:30;18.37;;;16.97;;
830;SDS011;397;50.564;7.272;2022-08-19T11:24:04;22.17;;;20.27;;
830;SDS011;397;50.564;7.272;2022-08-19T11:26:30;24.13;;;22.23;;
830;SDS011;397;50.564;7.272;2022-08-19T11:28:59;19.70;;;18.10;;
830;SDS011;397;50.564;7.272;2022-08-19T11:31:29;15.87;;;14.57;;
830;SDS011;397;50.564;7.272;2022-08-19T11:34:00;13.90;;;12.60;;
830;SDS011;397;50.564;7.272;2022-08-19T11:36:30;16.10;;;14.80;;
830;SDS011;397;50.564;7.272;2022-08-19T11:38:58;16.23;;;14.83;;
830;SDS011;397;50.564;7.272;2022-08-19T11:41:26;16.73;;;15.43;;
830;SDS011;397;50.564;7.272;2022-08-19T11:43:53;19.53;;;17.90;;
830;SDS011;397;50.564;7.272;2022-08-19T11:46:22;20.70;;;18.70;;
830;SDS011;397;50.564;7.272;2022-08-19T11:48:51;18.07;;;16.47;;
830;SDS011;397;50.564;7.272;2022-08-19T11:51:21;19.00;;;17.20;;
830;SDS011;397;50.564;7.272;2022-08-19T11:53:50;20.27;;;18.37;;
830;SDS011;397;50.564;7.272;2022-08-19T11:56:20;19.10;;;17.50;;
830;SDS011;397;50.564;7.272;2022-08-19T11:58:48;14.33;;;12.87;;
830;SDS011;397;50.564;7.272;2022-08-19T12:01:18;14.13;;;12.83;;
830;SDS011;397;50.564;7.272;2022-08-19T12:03:48;17.03;;;15.50;;
830;SDS011;397;50.564;7.272;2022-08-19T12:06:19;16.60;;;15.30;;
830;SDS011;397;50.564;7.272;2022-08-19T12:08:54;16.87;;;15.27;;
830;SDS011;397;50.564;7.272;2022-08-19T12:11:25;14.40;;;13.30;;
830;SDS011;397;50.564;7.272;2022-08-19T12:13:53;14.50;;;13.40;;
830;SDS011;397;50.564;7.272;2022-08-19T12:16:22;13.53;;;12.47;;
830;SDS011;397;50.564;7.272;2022-08-19T12:18:52;11.97;;;10.97;;
830;SDS011;397;50.564;7.272;2022-08-19T12:21:22;11.90;;;11.00;;
830;SDS011;397;50.564;7.272;2022-08-19T12:23:53;10.70;;;9.80;;
830;SDS011;397;50.564;7.272;2022-08-19T12:26:23;12.10;;;11.10;;
830;SDS011;397;50.564;7.272;2022-08-19T12:28:51;11.77;;;10.87;;
830;SDS011;397;50.564;7.272;2022-08-19T12:31:19;11.83;;;10.83;;
830;SDS011;397;50.564;7.272;2022-08-19T12:33:47;12.80;;;11.73;;
830;SDS011;397;50.564;7.272;2022-08-19T12:36:15;11.43;;;10.63;;
830;SDS011;397;50.564;7.272;2022-08-19T12:38:43;10.67;;;9.70;;
830;SDS011;397;50.564;7.272;2022-08-19T12:41:13;11.20;;;10.20;;
830;SDS011;397;50.564;7.272;2022-08-19T12:43:44;9.67;;;8.87;;
830;SDS011;397;50.564;7.272;2022-08-19T12:46:14;11.30;;;10.50;;
830;SDS011;397;50.564;7.272;2022-08-19T12:48:42;11.90;;;10.90;;
830;SDS011;397;50.564;7.272;2022-08-19T12:51:14;11.40;;;10.40;;
830;SDS011;397;50.564;7.272;2022-08-19T12:53:45;11.27;;;10.47;;
830;SDS011;397;50.564;7.272;2022-08-19T12:56:13;12.43;;;10.47;;
830;SDS011;397;50.564;7.272;2022-08-19T12:58:41;12.97;;;12.00;;
830;SDS011;397;50.564;7.272;2022-08-19T13:01:11;11.60;;;10.70;;
830;SDS011;397;50.564;7.272;2022-08-19T13:03:39;13.80;;;12.50;;
830;SDS011;397;50.564;7.272;2022-08-19T13:06:08;13.33;;;12.20;;
830;SDS011;397;50.564;7.272;2022-08-19T13:08:36;15.03;;;13.70;;
830;SDS011;397;50.564;7.272;2022-08-19T13:11:12;15.40;;;14.03;;
830;SDS011;397;50.564;7.272;2022-08-19T13:13:41;15.40;;;14.20;;
830;SDS011;397;50.564;7.272;2022-08-19T13:16:10;16.80;;;15.20;;
830;SDS011;397;50.564;7.272;2022-08-19T13:18:40;16.33;;;15.03;;
830;SDS011;397;50.564;7.272;2022-08-19T13:21:09;14.60;;;13.47;;
830;SDS011;397;50.564;7.272;2022-08-19T13:23:39;15.90;;;14.70;;
830;SDS011;397;50.564;7.272;2022-08-19T13:26:08;16.07;;;14.57;;
830;SDS011;397;50.564;7.272;2022-08-19T13:28:37;17.13;;;15.83;;
830;SDS011;397;50.564;7.272;2022-08-19T13:31:24;17.20;;;15.87;;
830;SDS011;397;50.564;7.272;2022-08-19T13:34:11;17.00;;;15.37;;
830;SDS011;397;50.564;7.272;2022-08-19T13:36:39;16.67;;;15.13;;
830;SDS011;397;50.564;7.272;2022-08-19T13:39:07;15.87;;;14.67;;
830;SDS011;397;50.564;7.272;2022-08-19T13:41:35;16.37;;;15.00;;
830;SDS011;397;50.564;7.272;2022-08-19T13:44:04;17.53;;;15.90;;
830;SDS011;397;50.564;7.272;2022-08-19T13:46:32;16.47;;;15.17;;
830;SDS011;397;50.564;7.272;2022-08-19T13:48:59;16.53;;;15.33;;
830;SDS011;397;50.564;7.272;2022-08-19T13:51:27;16.90;;;15.50;;
830;SDS011;397;50.564;7.272;2022-08-19T13:53:54;17.13;;;15.73;;
830;SDS011;397;50.564;7.272;2022-08-19T13:56:22;17.07;;;15.77;;
830;SDS011;397;50.564;7.272;2022-08-19T13:58:49;15.60;;;14.33;;
830;SDS011;397;50.564;7.272;2022-08-19T14:01:20;15.90;;;14.60;;
830;SDS011;397;50.564;7.272;2022-08-19T14:03:48;16.40;;;14.90;;
830;SDS011;397;50.564;7.272;2022-08-19T14:06:16;16.40;;;14.90;;
830;SDS011;397;50.564;7.272;2022-08-19T14:08:44;16.03;;;14.77;;
830;SDS011;397;50.564;7.272;2022-08-19T14:11:12;15.83;;;14.27;;
830;SDS011;397;50.564;7.272;2022-08-19T14:13:40;16.53;;;15.30;;
830;SDS011;397;50.564;7.272;2022-08-19T14:16:11;17.00;;;15.50;;
830;SDS011;397;50.564;7.272;2022-08-19T14:18:40;16.03;;;14.63;;
830;SDS011;397;50.564;7.272;2022-08-19T14:21:08;13.67;;;12.57;;
830;SDS011;397;50.564;7.272;2022-08-19T14:23:44;13.93;;;12.60;;
830;SDS011;397;50.564;7.272;2022-08-19T14:26:13;12.93;;;11.83;;
830;SDS011;397;50.564;7.272;2022-08-19T14:28:43;12.67;;;11.47;;
830;SDS011;397;50.564;7.272;2022-08-19T14:31:12;12.30;;;10.33;;
830;SDS011;397;50.564;7.272;2022-08-19T14:33:43;11.03;;;10.03;;
830;SDS011;397;50.564;7.272;2022-08-19T14:36:11;11.40;;;10.40;;
830;SDS011;397;50.564;7.272;2022-08-19T14:38:38;10.63;;;9.73;;
830;SDS011;397;50.564;7.272;2022-08-19T14:43:43;11.77;;;10.77;;
830;SDS011;397;50.564;7.272;2022-08-19T14:46:13;9.50;;;8.57;;
830;SDS011;397;50.564;7.272;2022-08-19T14:48:43;10.20;;;9.27;;
830;SDS011;397;50.564;7.272;2022-08-19T14:51:11;11.60;;;10.47;;
830;SDS011;397;50.564;7.272;2022-08-19T14:53:40;10.53;;;9.63;;
830;SDS011;397;50.564;7.272;2022-08-19T14:56:14;11.20;;;10.10;;
830;SDS011;397;50.564;7.272;2022-08-19T14:58:39;11.17;;;10.17;;
830;SDS011;397;50.564;7.272;2022-08-19T15:01:08;11.50;;;10.47;;
830;SDS011;397;50.564;7.272;2022-08-19T15:03:37;14.80;;;13.50;;
830;SDS011;397;50.564;7.272;2022-08-19T15:06:06;13.50;;;12.30;;
830;SDS011;397;50.564;7.272;2022-08-19T15:08:35;18.43;;;12.73;;
830;SDS011;397;50.564;7.272;2022-08-19T15:11:12;14.13;;;12.93;;
830;SDS011;397;50.564;7.272;2022-08-19T15:13:43;13.40;;;12.13;;
830;SDS011;397;50.564;7.272;2022-08-19T15:16:12;13.23;;;11.93;;
830;SDS011;397;50.564;7.272;2022-08-19T15:18:41;14.00;;;12.80;;
830;SDS011;397;50.564;7.272;2022-08-19T15:21:11;14.33;;;12.93;;
830;SDS011;397;50.564;7.272;2022-08-19T15:23:40;12.87;;;11.47;;
830;SDS011;397;50.564;7.272;2022-08-19T15:26:07;13.60;;;12.40;;
830;SDS011;397;50.564;7.272;2022-08-19T15:28:36;14.60;;;13.20;;
830;SDS011;397;50.564;7.272;2022-08-19T15:31:04;14.10;;;12.80;;
830;SDS011;397;50.564;7.272;2022-08-19T15:33:33;12.20;;;11.10;;
830;SDS011;397;50.564;7.272;2022-08-19T15:36:06;12.87;;;11.50;;
830;SDS011;397;50.564;7.272;2022-08-19T15:38:33;14.37;;;13.27;;
830;SDS011;397;50.564;7.272;2022-08-19T15:41:04;12.67;;;11.50;;
830;SDS011;397;50.564;7.272;2022-08-19T15:43:49;12.77;;;11.53;;
830;SDS011;397;50.564;7.272;2022-08-19T15:46:24;12.23;;;11.13;;